メインページ
METAR-TAF:

METAR-TAF

空港 :

パゴパゴ国際空港

パゴパゴ, 合衆国領有小離島

緯度: 14-20S, 経度: 170-43W, 海抜: 3m

現時点の気象観測

当レポートは26分前の23:50(UTC)に作成
東/南東の風 9kt
気温 30°C
湿度 75%
気圧 1010 hPa
視程: 19.3km
高度1700ftの雲は散在している

METAR: NSTU 202350Z 12009KT 12SM SCT017 30/25 A2982 RMK SLP098 60000 8/100 T02950246 10296 20245 56019

時間: 13:16 (00:16 UTC)

予報

当レポートは35分前の23:41(UTC)に作成
予報は21日の 00時(UTC)から 21日の 24時(UTC)まで有効
東/南東の風 10kt
視程: 10km
高度1500ftの雲は散在している
高度5000ftの千切れ雲あり
高度10000ftの曇り
近辺でにわか雨
21日の 0200時(UTC)から
南東の風 14kt
視程: 10km
高度2500ftの雲は散在している
高度5000ftの雲は散在している

TAF: NSTU 202341Z 2100/2124 11010KT P6SM VCSH SCT015 BKN050 OVC100 FM210200 13014KT P6SM SCT025 SCT050

4,000以上の空港の気象観測と天気予報(METAR報とTAF報)

利用可能な観測所は地図上に黄色い丸と赤い丸で示す。

丸の上にカーソルを重ねると観測所名を参照できる。

次にクリックすると気象観測と天気予報を参照できる。

マップの切り替え:黒色「×」印の緑ボタンをクリックして拡大、「-」印の緑ボタンをクリックして縮小、緑色の三角印をクリックして隣りの地図に切り替え


METAR-TAF: